Terminal Aerodrome Forecast
Issued by NWS

Home | Current Version | Previous Version | Text Only | Print | Product List | Glossary On
Versions: 1 2 3 4 5 6 7 8 9 10 11 12 13 14
000
FTUS44 KLIX 182300
TAFMSY
TAF
KMSY 182320Z 1900/1924 16008KT P6SM VCSH SCT030 BKN100
     FM190300 VRB03KT P6SM FEW035 BKN060
     FM190800 10004KT P6SM BKN090
     FM191400 09009KT P6SM SCT035 BKN130=

USA.gov is the U.S. government's official web portal to all federal, state and local government web resources and services.